createdAt,value
2018-09-24T00:00:28.260Z,3.95
2018-09-24T00:02:55.427Z,3.47
2018-09-24T00:05:22.607Z,3.72
2018-09-24T00:07:49.781Z,3.50
2018-09-24T00:10:16.947Z,3.70
2018-09-24T00:12:44.235Z,3.35
2018-09-24T00:15:11.396Z,3.67
2018-09-24T00:17:38.641Z,3.58
2018-09-24T00:20:05.827Z,3.52
2018-09-24T00:22:33.021Z,3.45
2018-09-24T00:25:00.249Z,3.40
2018-09-24T00:27:27.428Z,3.60
2018-09-24T00:29:54.995Z,4.00
2018-09-24T00:32:22.154Z,3.55
2018-09-24T00:34:49.402Z,4.03
2018-09-24T00:37:16.595Z,4.10
2018-09-24T00:39:43.775Z,3.70
2018-09-24T00:42:10.957Z,3.80
2018-09-24T00:44:38.206Z,3.67
2018-09-24T00:47:05.390Z,3.80
2018-09-24T00:49:32.581Z,3.30
2018-09-24T00:51:59.761Z,3.52
2018-09-24T00:54:26.934Z,3.10
2018-09-24T00:56:54.135Z,2.95
2018-09-24T00:59:21.315Z,3.20
2018-09-24T01:01:48.526Z,2.80
2018-09-24T01:04:15.724Z,3.30
2018-09-24T01:06:42.967Z,3.33
2018-09-24T01:09:11.083Z,3.40
2018-09-24T01:11:38.392Z,3.15
2018-09-24T01:14:05.746Z,3.33
2018-09-24T01:16:32.915Z,3.58
2018-09-24T01:19:00.107Z,3.33
2018-09-24T01:21:27.295Z,3.60
2018-09-24T01:23:54.494Z,3.33
2018-09-24T01:26:21.656Z,3.40
2018-09-24T01:28:48.825Z,3.55
2018-09-24T01:31:16.011Z,3.20
2018-09-24T01:33:43.262Z,3.12
2018-09-24T01:36:10.422Z,3.50
2018-09-24T01:38:37.653Z,3.50
2018-09-24T01:41:04.841Z,3.40
2018-09-24T01:43:32.020Z,3.60
2018-09-24T01:45:59.177Z,3.50
2018-09-24T01:48:26.356Z,3.65
2018-09-24T01:50:53.519Z,3.58
2018-09-24T01:53:20.760Z,3.83
2018-09-24T01:55:48.949Z,3.60
2018-09-24T01:58:16.174Z,3.10
2018-09-24T02:00:43.380Z,3.80
2018-09-24T02:03:10.543Z,3.60
2018-09-24T02:05:37.727Z,3.45
2018-09-24T02:08:04.891Z,3.80
2018-09-24T02:10:32.046Z,4.05
2018-09-24T02:12:59.242Z,3.90
2018-09-24T02:15:28.225Z,4.35
2018-09-24T02:17:55.454Z,3.75
2018-09-24T02:20:22.655Z,4.20
2018-09-24T02:22:49.822Z,3.80
2018-09-24T02:25:16.997Z,3.92
2018-09-24T02:27:44.181Z,3.80
2018-09-24T02:30:13.604Z,3.90
2018-09-24T02:32:40.889Z,3.77
2018-09-24T02:35:08.114Z,3.45
2018-09-24T02:37:35.305Z,4.12
2018-09-24T02:40:02.463Z,3.87
2018-09-24T02:42:29.692Z,4.05
2018-09-24T02:44:57.921Z,3.62
2018-09-24T02:47:27.146Z,3.75
2018-09-24T02:49:54.332Z,4.53
2018-09-24T02:52:21.486Z,4.28
2018-09-24T02:54:48.720Z,4.42
2018-09-24T02:57:15.898Z,5.00
2018-09-24T02:59:44.927Z,4.60
2018-09-24T03:02:12.091Z,4.80
2018-09-24T03:04:39.280Z,4.35
2018-09-24T03:07:06.440Z,4.62
2018-09-24T03:09:34.332Z,4.70
2018-09-24T03:12:01.522Z,4.87
2018-09-24T03:14:28.704Z,5.92
2018-09-24T03:16:55.946Z,4.28
2018-09-24T03:19:23.393Z,4.05
2018-09-24T03:21:50.586Z,4.67
2018-09-24T03:24:17.771Z,4.12
2018-09-24T03:26:44.942Z,4.55
2018-09-24T03:29:18.380Z,4.72
2018-09-24T03:31:45.556Z,4.55
2018-09-24T03:34:14.121Z,5.10
2018-09-24T03:36:41.278Z,5.10
2018-09-24T03:39:09.388Z,4.58
2018-09-24T03:41:36.567Z,4.58
2018-09-24T03:44:03.800Z,4.62
2018-09-24T03:46:30.986Z,4.40
2018-09-24T03:48:58.154Z,4.50
2018-09-24T03:51:25.325Z,4.90
2018-09-24T03:53:52.528Z,5.00
2018-09-24T03:56:19.695Z,4.78
2018-09-24T03:58:46.909Z,3.95
2018-09-24T04:01:14.085Z,4.50
2018-09-24T04:03:41.302Z,5.08
2018-09-24T04:06:13.798Z,5.35
2018-09-24T04:08:46.455Z,4.85
2018-09-24T04:11:19.204Z,4.70
2018-09-24T04:13:51.897Z,4.80
2018-09-24T04:16:24.601Z,4.90
2018-09-24T04:18:57.342Z,6.05
2018-09-24T04:21:29.992Z,4.90
2018-09-24T04:24:02.700Z,5.08
2018-09-24T04:26:35.447Z,5.65
2018-09-24T04:29:08.179Z,6.40
2018-09-24T04:31:40.956Z,6.40
2018-09-24T04:34:13.749Z,5.83
2018-09-24T04:36:46.447Z,6.08
2018-09-24T04:39:19.180Z,6.25
2018-09-24T04:41:51.869Z,6.33
2018-09-24T04:44:24.684Z,6.30
2018-09-24T04:46:57.368Z,6.62
2018-09-24T04:49:30.146Z,6.30
2018-09-24T04:52:02.896Z,6.50
2018-09-24T04:54:35.558Z,6.47
2018-09-24T04:57:08.308Z,6.62
2018-09-24T04:59:40.924Z,6.45
2018-09-24T05:02:13.610Z,6.50
2018-09-24T05:04:46.401Z,7.05
2018-09-24T05:07:18.950Z,6.85
2018-09-24T05:09:51.533Z,6.92
2018-09-24T05:12:24.259Z,6.55
2018-09-24T05:14:56.992Z,5.60
2018-09-24T05:17:29.614Z,6.30
2018-09-24T05:20:02.327Z,6.05
2018-09-24T05:22:34.914Z,6.70
2018-09-24T05:25:07.770Z,6.75
2018-09-24T05:27:40.391Z,6.70
2018-09-24T05:30:13.091Z,6.85
2018-09-24T05:32:45.776Z,6.45
2018-09-24T05:35:18.436Z,6.87
2018-09-24T05:37:51.119Z,6.62
2018-09-24T05:40:23.712Z,6.00
2018-09-24T05:42:56.466Z,6.20
2018-09-24T05:45:29.157Z,6.45
2018-09-24T05:48:01.949Z,6.85
2018-09-24T05:50:34.488Z,6.50
2018-09-24T05:53:07.256Z,5.75
2018-09-24T05:55:39.884Z,6.65
2018-09-24T05:58:12.635Z,5.87
2018-09-24T06:00:45.339Z,6.42
2018-09-24T06:03:18.115Z,6.78
2018-09-24T06:05:50.883Z,7.95
2018-09-24T06:08:23.523Z,6.08
2018-09-24T06:10:56.250Z,6.97
2018-09-24T06:13:28.878Z,7.20
2018-09-24T06:16:01.619Z,8.00
2018-09-24T06:18:34.343Z,7.53
2018-09-24T06:21:07.064Z,7.83
2018-09-24T06:23:39.824Z,8.35
2018-09-24T06:26:12.501Z,6.40
2018-09-24T06:28:45.127Z,6.72
2018-09-24T06:31:17.892Z,6.87
2018-09-24T06:33:50.677Z,7.25
2018-09-24T06:36:23.373Z,6.20
2018-09-24T06:38:56.019Z,5.90
2018-09-24T06:41:28.687Z,5.78
2018-09-24T06:44:01.244Z,6.12
2018-09-24T06:46:33.890Z,6.67
2018-09-24T06:49:06.594Z,6.20
2018-09-24T06:51:39.331Z,6.60
2018-09-24T06:54:12.111Z,6.67
2018-09-24T06:56:44.892Z,6.70
2018-09-24T06:59:17.594Z,6.00
2018-09-24T07:01:50.280Z,6.87
2018-09-24T07:04:23.027Z,5.92
2018-09-24T07:06:55.665Z,6.03
2018-09-24T07:09:28.305Z,5.85
2018-09-24T07:12:00.983Z,5.60
2018-09-24T07:14:33.805Z,6.15
2018-09-24T07:17:06.516Z,6.55
2018-09-24T07:19:39.324Z,5.87
2018-09-24T07:22:12.071Z,6.03
2018-09-24T07:24:44.800Z,5.83
2018-09-24T07:27:17.551Z,5.85
2018-09-24T07:29:50.266Z,6.25
2018-09-24T07:32:22.984Z,4.85
2018-09-24T07:34:55.729Z,5.30
2018-09-24T07:37:28.440Z,5.08
2018-09-24T07:40:01.214Z,5.28
2018-09-24T07:42:33.959Z,4.35
2018-09-24T07:45:06.632Z,4.75
2018-09-24T07:47:39.421Z,4.53
2018-09-24T07:50:12.115Z,5.50
2018-09-24T07:52:44.885Z,4.70
2018-09-24T07:55:17.673Z,4.37
2018-09-24T07:57:50.321Z,4.90
2018-09-24T08:00:23.023Z,4.85
2018-09-24T08:02:55.825Z,5.28
2018-09-24T08:05:28.543Z,5.05
2018-09-24T08:08:01.292Z,4.67
2018-09-24T08:10:33.915Z,4.83
2018-09-24T08:13:06.816Z,4.75
2018-09-24T08:15:39.426Z,4.65
2018-09-24T08:18:12.243Z,4.90
2018-09-24T08:20:44.861Z,4.47
2018-09-24T08:23:17.456Z,4.80
2018-09-24T08:25:50.164Z,4.70
2018-09-24T08:28:22.968Z,4.97
2018-09-24T08:30:55.713Z,5.20
2018-09-24T08:33:28.473Z,4.62
2018-09-24T08:36:01.148Z,4.28
2018-09-24T08:38:33.969Z,5.35
2018-09-24T08:41:06.739Z,4.10
2018-09-24T08:43:39.430Z,4.37
2018-09-24T08:46:12.079Z,3.62
2018-09-24T08:48:44.782Z,3.72
2018-09-24T08:51:17.404Z,3.47
2018-09-24T08:53:50.110Z,3.70
2018-09-24T08:56:22.762Z,3.62
2018-09-24T08:58:55.572Z,4.25
2018-09-24T09:01:28.350Z,4.00
2018-09-24T09:04:01.178Z,4.30
2018-09-24T09:06:33.871Z,3.60
2018-09-24T09:09:06.636Z,4.08
2018-09-24T09:11:39.367Z,4.30
2018-09-24T09:14:11.994Z,4.67
2018-09-24T09:16:44.764Z,4.03
2018-09-24T09:19:17.523Z,4.92
2018-09-24T09:21:50.305Z,3.87
2018-09-24T09:24:23.122Z,3.70
2018-09-24T09:26:55.803Z,4.35
2018-09-24T09:29:28.617Z,3.60
2018-09-24T09:32:01.308Z,3.05
2018-09-24T09:34:34.109Z,3.95
2018-09-24T09:37:06.799Z,3.98
2018-09-24T09:39:39.591Z,3.50
2018-09-24T09:42:12.254Z,3.45
2018-09-24T09:44:44.927Z,3.75
2018-09-24T09:47:17.662Z,3.90
2018-09-24T09:49:50.430Z,3.83
2018-09-24T09:52:23.056Z,2.77
2018-09-24T09:54:55.893Z,2.50
2018-09-24T09:57:28.759Z,2.65
2018-09-24T10:00:01.335Z,1.95
2018-09-24T10:02:34.118Z,2.55
2018-09-24T10:05:06.917Z,1.77
2018-09-24T10:07:39.596Z,2.42
2018-09-24T10:10:12.364Z,1.60
2018-09-24T10:12:45.021Z,2.40
2018-09-24T10:15:17.840Z,2.15
2018-09-24T10:17:50.676Z,2.05
2018-09-24T10:20:23.448Z,1.77
2018-09-24T10:22:56.205Z,2.20
2018-09-24T10:25:28.966Z,2.58
2018-09-24T10:28:01.750Z,2.27
2018-09-24T10:30:34.427Z,1.72
2018-09-24T10:33:07.272Z,2.00
2018-09-24T10:35:40.056Z,2.20
2018-09-24T10:38:12.876Z,2.17
2018-09-24T10:40:45.512Z,1.85
2018-09-24T10:43:18.184Z,1.90
2018-09-24T10:45:50.967Z,1.70
2018-09-24T10:48:23.769Z,1.65
2018-09-24T10:50:56.582Z,3.47
2018-09-24T10:53:29.198Z,1.85
2018-09-24T10:56:01.970Z,1.95
2018-09-24T10:58:34.769Z,3.22
2018-09-24T11:01:07.570Z,3.55
2018-09-24T11:03:40.353Z,2.60
2018-09-24T11:06:13.003Z,2.30
2018-09-24T11:08:45.704Z,1.77
2018-09-24T11:11:18.440Z,2.58
2018-09-24T11:13:51.263Z,1.80
2018-09-24T11:16:24.018Z,2.10
2018-09-24T11:18:56.838Z,1.37
2018-09-24T11:21:29.657Z,1.95
2018-09-24T11:24:02.368Z,1.80
2018-09-24T11:26:35.146Z,2.22
2018-09-24T11:29:07.972Z,2.05
2018-09-24T11:31:40.784Z,1.62
2018-09-24T11:34:13.495Z,1.40
2018-09-24T11:36:46.142Z,1.32
2018-09-24T11:39:18.815Z,1.47
2018-09-24T11:41:51.578Z,1.40
2018-09-24T11:44:24.387Z,1.55
2018-09-24T11:46:57.302Z,1.50
2018-09-24T11:49:30.000Z,1.10
2018-09-24T11:52:02.706Z,1.75
2018-09-24T11:54:35.467Z,1.10
2018-09-24T11:57:08.135Z,1.12
2018-09-24T11:59:40.941Z,1.35
2018-09-24T12:02:13.715Z,0.70
2018-09-24T12:04:46.398Z,0.90
2018-09-24T12:07:19.036Z,1.50
2018-09-24T12:09:51.872Z,1.00
2018-09-24T12:12:24.782Z,0.95
2018-09-24T12:14:57.531Z,0.90
2018-09-24T12:17:30.299Z,1.10
2018-09-24T12:20:02.975Z,1.27
2018-09-24T12:22:35.814Z,1.55
2018-09-24T12:25:08.467Z,1.15
2018-09-24T12:27:41.031Z,1.60
2018-09-24T12:30:13.747Z,1.02
2018-09-24T12:32:46.423Z,1.57
2018-09-24T12:35:19.172Z,1.62
2018-09-24T12:37:51.877Z,0.70
2018-09-24T12:40:24.599Z,1.72
2018-09-24T12:42:57.390Z,1.55
2018-09-24T12:45:30.126Z,1.05
2018-09-24T12:48:02.968Z,1.95
2018-09-24T12:50:35.631Z,1.45
2018-09-24T12:53:08.474Z,0.95
2018-09-24T12:55:41.256Z,1.42
2018-09-24T12:58:14.038Z,1.10
2018-09-24T13:00:46.730Z,2.47
2018-09-24T13:03:19.335Z,1.30
2018-09-24T13:05:52.034Z,1.25
2018-09-24T13:08:24.684Z,1.30
2018-09-24T13:10:57.390Z,1.90
2018-09-24T13:13:30.175Z,1.32
2018-09-24T13:16:02.961Z,1.00
2018-09-24T13:18:35.783Z,1.10
2018-09-24T13:21:08.540Z,1.10
2018-09-24T13:23:41.296Z,1.40
2018-09-24T13:26:13.985Z,1.60
2018-09-24T13:28:46.660Z,1.10
2018-09-24T13:31:19.382Z,0.80
2018-09-24T13:33:52.151Z,1.10
2018-09-24T13:36:24.739Z,0.80
2018-09-24T13:39:04.197Z,1.10
2018-09-24T13:41:36.825Z,1.00
2018-09-24T13:44:09.642Z,0.70
2018-09-24T13:46:42.367Z,0.90
2018-09-24T13:49:15.198Z,1.10
2018-09-24T13:51:47.884Z,1.47
2018-09-24T13:54:20.625Z,1.10
2018-09-24T13:56:53.242Z,1.62
2018-09-24T13:59:25.889Z,0.70
2018-09-24T14:01:58.615Z,1.57
2018-09-24T14:04:31.372Z,1.00
2018-09-24T14:07:03.993Z,1.10
2018-09-24T14:09:36.614Z,0.78
2018-09-24T14:12:09.399Z,1.20
2018-09-24T14:14:42.175Z,1.35
2018-09-24T14:17:14.995Z,1.27
2018-09-24T14:19:47.745Z,1.27
2018-09-24T14:22:20.483Z,1.52
2018-09-24T14:24:53.186Z,2.08
2018-09-24T14:27:25.763Z,1.40
2018-09-24T14:29:58.547Z,2.00
2018-09-24T14:32:31.307Z,1.62
2018-09-24T14:35:04.114Z,1.70
2018-09-24T14:37:36.864Z,2.17
2018-09-24T14:40:09.610Z,2.00
2018-09-24T14:42:42.450Z,2.12
2018-09-24T14:45:15.222Z,1.47
2018-09-24T14:47:47.957Z,1.55
2018-09-24T14:50:20.601Z,1.67
2018-09-24T14:52:53.625Z,1.00
2018-09-24T14:55:26.385Z,1.10
2018-09-24T14:57:58.971Z,0.60
2018-09-24T15:00:31.741Z,1.20
2018-09-24T15:03:04.583Z,0.65
2018-09-24T15:05:37.391Z,0.80
2018-09-24T15:08:10.144Z,0.78
2018-09-24T15:10:42.963Z,1.00
2018-09-24T15:13:15.767Z,1.02
2018-09-24T15:15:48.520Z,0.75
2018-09-24T15:18:21.191Z,0.72
2018-09-24T15:20:53.987Z,0.90
2018-09-24T15:23:26.702Z,0.88
2018-09-24T15:25:59.442Z,0.90
2018-09-24T15:28:32.140Z,0.98
2018-09-24T15:31:04.807Z,1.10
2018-09-24T15:33:37.523Z,1.12
2018-09-24T15:36:10.139Z,1.40
2018-09-24T15:38:42.812Z,1.40
2018-09-24T15:41:15.344Z,1.72
2018-09-24T15:43:48.100Z,1.87
2018-09-24T15:46:20.823Z,1.55
2018-09-24T15:48:53.557Z,1.40
2018-09-24T15:51:26.382Z,1.45
2018-09-24T15:53:59.048Z,1.00
2018-09-24T15:56:31.820Z,1.40
2018-09-24T15:59:04.491Z,1.15
2018-09-24T16:01:37.301Z,1.10
2018-09-24T16:04:09.975Z,1.15
2018-09-24T16:06:42.640Z,1.50
2018-09-24T16:09:15.284Z,1.50
2018-09-24T16:11:47.967Z,1.47
2018-09-24T16:14:20.747Z,1.05
2018-09-24T16:16:53.492Z,0.78
2018-09-24T16:19:26.263Z,0.70
2018-09-24T16:21:58.995Z,1.15
2018-09-24T16:24:31.791Z,1.62
2018-09-24T16:27:04.559Z,1.30
2018-09-24T16:29:37.316Z,1.87
2018-09-24T16:32:09.977Z,1.60
2018-09-24T16:34:42.603Z,2.70
2018-09-24T16:37:15.327Z,1.15
2018-09-24T16:39:48.041Z,0.78
2018-09-24T16:42:20.816Z,1.07
2018-09-24T16:44:53.519Z,1.05
2018-09-24T16:47:26.203Z,1.50
2018-09-24T16:49:59.044Z,0.68
2018-09-24T16:52:31.706Z,1.20
2018-09-24T16:55:04.451Z,1.45
2018-09-24T16:57:37.211Z,1.95
2018-09-24T17:00:10.015Z,1.87
2018-09-24T17:02:42.744Z,1.70
2018-09-24T17:05:15.517Z,1.95
2018-09-24T17:07:48.263Z,1.90
2018-09-24T17:10:21.027Z,2.50
2018-09-24T17:12:53.863Z,2.52
2018-09-24T17:15:26.591Z,2.60
2018-09-24T17:17:59.384Z,2.33
2018-09-24T17:20:32.160Z,2.17
2018-09-24T17:23:04.908Z,2.20
2018-09-24T17:25:37.741Z,2.17
2018-09-24T17:28:10.657Z,2.27
2018-09-24T17:30:43.284Z,2.58
2018-09-24T17:33:15.962Z,2.20
2018-09-24T17:35:48.660Z,2.50
2018-09-24T17:38:21.308Z,2.67
2018-09-24T17:40:54.045Z,2.30
2018-09-24T17:43:26.837Z,2.60
2018-09-24T17:45:59.656Z,2.20
2018-09-24T17:48:32.432Z,2.30
2018-09-24T17:51:05.131Z,2.40
2018-09-24T17:53:37.941Z,2.27
2018-09-24T17:56:10.717Z,2.60
2018-09-24T17:58:43.493Z,2.17
2018-09-24T18:01:16.149Z,2.60
2018-09-24T18:03:48.766Z,2.27
2018-09-24T18:06:21.519Z,2.77
2018-09-24T18:08:54.199Z,2.72
2018-09-24T18:11:26.847Z,2.75
2018-09-24T18:13:59.603Z,2.77
2018-09-24T18:16:32.316Z,2.62
2018-09-24T18:19:05.170Z,2.58
2018-09-24T18:21:37.879Z,2.50
2018-09-24T18:24:10.485Z,2.52
2018-09-24T18:26:42.951Z,2.72
2018-09-24T18:29:15.728Z,3.10
2018-09-24T18:31:48.430Z,2.60
2018-09-24T18:34:21.081Z,3.17
2018-09-24T18:36:53.813Z,2.40
2018-09-24T18:39:26.604Z,2.95
2018-09-24T18:41:59.347Z,2.72
2018-09-24T18:44:32.039Z,3.20
2018-09-24T18:47:04.846Z,2.92
2018-09-24T18:49:37.474Z,2.58
2018-09-24T18:52:10.259Z,2.60
2018-09-24T18:54:42.972Z,3.10
2018-09-24T18:57:15.703Z,2.42
2018-09-24T18:59:48.449Z,2.70
2018-09-24T19:02:21.130Z,2.62
2018-09-24T19:04:53.892Z,2.50
2018-09-24T19:07:26.520Z,2.40
2018-09-24T19:09:59.144Z,2.50
2018-09-24T19:12:31.814Z,2.30
2018-09-24T19:15:04.380Z,2.80
2018-09-24T19:17:37.084Z,3.17
2018-09-24T19:20:09.847Z,3.00
2018-09-24T19:22:42.584Z,2.70
2018-09-24T19:25:15.345Z,3.08
2018-09-24T19:27:48.099Z,2.87
2018-09-24T19:30:20.847Z,3.50
2018-09-24T19:32:53.674Z,3.37
2018-09-24T19:35:26.275Z,4.00
2018-09-24T19:37:58.916Z,3.40
2018-09-24T19:40:31.570Z,3.27
2018-09-24T19:43:04.076Z,3.92
2018-09-24T19:45:36.763Z,3.70
2018-09-24T19:48:09.383Z,4.25
2018-09-24T19:50:42.200Z,3.60
2018-09-24T19:53:14.871Z,3.90
2018-09-24T19:55:47.475Z,3.50
2018-09-24T19:58:20.155Z,3.50
2018-09-24T20:00:53.039Z,3.95
2018-09-24T20:03:25.753Z,3.62
2018-09-24T20:05:58.400Z,3.90
2018-09-24T20:08:30.998Z,3.80
2018-09-24T20:11:03.787Z,4.03
2018-09-24T20:13:36.468Z,4.40
2018-09-24T20:16:09.107Z,4.40
2018-09-24T20:18:41.746Z,4.50
2018-09-24T20:21:14.552Z,3.90
2018-09-24T20:23:47.240Z,4.30
2018-09-24T20:26:19.887Z,3.42
2018-09-24T20:28:52.576Z,3.50
2018-09-24T20:31:25.303Z,4.00
2018-09-24T20:33:58.090Z,2.98
2018-09-24T20:36:30.730Z,3.30
2018-09-24T20:39:03.408Z,3.45
2018-09-24T20:41:36.106Z,3.12
2018-09-24T20:44:08.921Z,3.75
2018-09-24T20:46:41.660Z,3.12
2018-09-24T20:49:14.408Z,3.83
2018-09-24T20:51:47.119Z,3.50
2018-09-24T20:54:19.787Z,3.55
2018-09-24T20:56:52.508Z,2.90
2018-09-24T20:59:25.142Z,2.85
2018-09-24T21:01:57.940Z,2.90
2018-09-24T21:04:30.620Z,3.02
2018-09-24T21:07:03.447Z,3.50
2018-09-24T21:09:36.078Z,2.83
2018-09-24T21:12:08.807Z,3.30
2018-09-24T21:14:41.376Z,3.25
2018-09-24T21:17:14.138Z,3.35
2018-09-24T21:19:46.845Z,3.47
2018-09-24T21:22:19.515Z,3.02
2018-09-24T21:24:52.248Z,2.98
2018-09-24T21:27:24.935Z,3.17
2018-09-24T21:29:57.617Z,3.25
2018-09-24T21:32:30.405Z,3.58
2018-09-24T21:35:03.138Z,3.35
2018-09-24T21:37:37.660Z,3.30
2018-09-24T21:40:10.276Z,2.90
2018-09-24T21:42:42.890Z,3.05
2018-09-24T21:45:15.504Z,3.30
2018-09-24T21:47:48.156Z,3.20
2018-09-24T21:50:20.880Z,3.67
2018-09-24T21:52:53.575Z,3.33
2018-09-24T21:55:26.261Z,3.30
2018-09-24T21:57:59.016Z,3.50
2018-09-24T22:00:31.822Z,2.80
2018-09-24T22:03:04.546Z,3.90
2018-09-24T22:05:37.170Z,3.40
2018-09-24T22:08:09.868Z,3.50
2018-09-24T22:10:42.555Z,3.42
2018-09-24T22:13:15.326Z,3.55
2018-09-24T22:15:48.112Z,3.05
2018-09-24T22:18:20.726Z,3.85
2018-09-24T22:20:53.466Z,3.22
2018-09-24T22:23:26.222Z,3.37
2018-09-24T22:25:58.903Z,3.00
2018-09-24T22:28:31.713Z,3.12
2018-09-24T22:31:04.330Z,3.27
2018-09-24T22:33:37.018Z,3.55
2018-09-24T22:36:09.712Z,3.67
2018-09-24T22:38:42.411Z,3.08
2018-09-24T22:41:15.194Z,3.22
2018-09-24T22:43:47.872Z,3.33
2018-09-24T22:46:20.651Z,3.45
2018-09-24T22:48:53.400Z,3.15
2018-09-24T22:51:26.188Z,3.85
2018-09-24T22:53:58.787Z,3.40
2018-09-24T22:56:31.534Z,3.70
2018-09-24T22:59:04.280Z,4.30
2018-09-24T23:01:36.960Z,3.35
2018-09-24T23:04:09.725Z,3.50
2018-09-24T23:06:42.387Z,3.22
2018-09-24T23:09:15.071Z,4.25
2018-09-24T23:11:47.659Z,4.08
2018-09-24T23:14:20.462Z,3.58
2018-09-24T23:16:53.131Z,3.62
2018-09-24T23:19:25.893Z,3.52
2018-09-24T23:21:58.638Z,3.87
2018-09-24T23:24:31.243Z,4.00
2018-09-24T23:27:03.961Z,4.25
2018-09-24T23:29:36.627Z,3.70
2018-09-24T23:32:09.411Z,3.85
2018-09-24T23:34:42.072Z,3.85
2018-09-24T23:37:14.818Z,3.55
2018-09-24T23:39:47.446Z,4.20
2018-09-24T23:42:20.203Z,4.22
2018-09-24T23:44:52.870Z,4.30
2018-09-24T23:47:25.635Z,3.70
2018-09-24T23:49:58.242Z,4.40
2018-09-24T23:52:30.915Z,3.80
2018-09-24T23:55:03.673Z,4.20
2018-09-24T23:57:36.395Z,3.92
